sensor_id;sensor_type;location;lat;lon;timestamp;P1;durP1;ratioP1;P2;durP2;ratioP2
13588;SDS011;6865;52.552;13.434;2023-07-20T00:00:45;7.55;;;3.83;;
13588;SDS011;6865;52.552;13.434;2023-07-20T00:03:13;5.28;;;3.90;;
13588;SDS011;6865;52.552;13.434;2023-07-20T00:05:43;6.13;;;3.90;;
13588;SDS011;6865;52.552;13.434;2023-07-20T00:08:10;7.80;;;4.60;;
13588;SDS011;6865;52.552;13.434;2023-07-20T00:10:37;5.20;;;4.20;;
13588;SDS011;6865;52.552;13.434;2023-07-20T00:13:06;6.55;;;4.47;;
13588;SDS011;6865;52.552;13.434;2023-07-20T00:15:33;5.00;;;4.53;;
13588;SDS011;6865;52.552;13.434;2023-07-20T00:17:59;5.47;;;4.15;;
13588;SDS011;6865;52.552;13.434;2023-07-20T00:20:26;5.43;;;4.22;;
13588;SDS011;6865;52.552;13.434;2023-07-20T00:22:53;5.60;;;4.45;;
13588;SDS011;6865;52.552;13.434;2023-07-20T00:25:21;5.82;;;4.63;;
13588;SDS011;6865;52.552;13.434;2023-07-20T00:27:48;5.70;;;4.28;;
13588;SDS011;6865;52.552;13.434;2023-07-20T00:30:14;5.47;;;4.38;;
13588;SDS011;6865;52.552;13.434;2023-07-20T00:32:42;6.60;;;4.63;;
13588;SDS011;6865;52.552;13.434;2023-07-20T00:35:09;5.93;;;4.72;;
13588;SDS011;6865;52.552;13.434;2023-07-20T00:37:38;4.80;;;4.15;;
13588;SDS011;6865;52.552;13.434;2023-07-20T00:40:05;5.18;;;4.68;;
13588;SDS011;6865;52.552;13.434;2023-07-20T00:42:35;4.80;;;4.20;;
13588;SDS011;6865;52.552;13.434;2023-07-20T00:45:02;7.75;;;4.75;;
13588;SDS011;6865;52.552;13.434;2023-07-20T00:47:29;7.07;;;4.20;;
13588;SDS011;6865;52.552;13.434;2023-07-20T00:49:56;7.90;;;4.72;;
13588;SDS011;6865;52.552;13.434;2023-07-20T00:52:23;6.45;;;4.50;;
13588;SDS011;6865;52.552;13.434;2023-07-20T00:54:51;8.70;;;4.93;;
13588;SDS011;6865;52.552;13.434;2023-07-20T00:57:22;5.07;;;4.50;;
13588;SDS011;6865;52.552;13.434;2023-07-20T00:59:50;6.03;;;4.93;;
13588;SDS011;6865;52.552;13.434;2023-07-20T01:02:17;5.72;;;4.80;;
13588;SDS011;6865;52.552;13.434;2023-07-20T01:04:43;6.72;;;4.88;;
13588;SDS011;6865;52.552;13.434;2023-07-20T01:07:11;5.30;;;4.80;;
13588;SDS011;6865;52.552;13.434;2023-07-20T01:09:55;5.78;;;4.70;;
13588;SDS011;6865;52.552;13.434;2023-07-20T01:12:45;8.18;;;4.70;;
13588;SDS011;6865;52.552;13.434;2023-07-20T01:15:14;7.60;;;4.88;;
13588;SDS011;6865;52.552;13.434;2023-07-20T01:17:41;6.80;;;4.90;;
13588;SDS011;6865;52.552;13.434;2023-07-20T01:20:08;6.70;;;5.18;;
13588;SDS011;6865;52.552;13.434;2023-07-20T01:23:00;5.35;;;4.85;;
13588;SDS011;6865;52.552;13.434;2023-07-20T01:25:58;5.53;;;4.68;;
13588;SDS011;6865;52.552;13.434;2023-07-20T01:31:26;5.18;;;4.68;;
13588;SDS011;6865;52.552;13.434;2023-07-20T01:33:55;6.68;;;5.00;;
13588;SDS011;6865;52.552;13.434;2023-07-20T01:36:24;5.53;;;5.03;;
13588;SDS011;6865;52.552;13.434;2023-07-20T01:38:54;5.88;;;5.20;;
13588;SDS011;6865;52.552;13.434;2023-07-20T01:41:22;7.70;;;5.82;;
13588;SDS011;6865;52.552;13.434;2023-07-20T01:43:49;6.88;;;5.07;;
13588;SDS011;6865;52.552;13.434;2023-07-20T01:46:15;6.20;;;5.18;;
13588;SDS011;6865;52.552;13.434;2023-07-20T01:48:42;7.05;;;5.70;;
13588;SDS011;6865;52.552;13.434;2023-07-20T01:51:09;5.93;;;5.10;;
13588;SDS011;6865;52.552;13.434;2023-07-20T01:53:36;7.00;;;6.00;;
13588;SDS011;6865;52.552;13.434;2023-07-20T01:56:02;6.53;;;5.85;;
13588;SDS011;6865;52.552;13.434;2023-07-20T01:58:29;8.60;;;6.63;;
13588;SDS011;6865;52.552;13.434;2023-07-20T02:00:56;6.60;;;5.82;;
13588;SDS011;6865;52.552;13.434;2023-07-20T02:03:22;7.88;;;6.35;;
13588;SDS011;6865;52.552;13.434;2023-07-20T02:05:52;6.72;;;5.97;;
13588;SDS011;6865;52.552;13.434;2023-07-20T02:08:18;6.43;;;5.80;;
13588;SDS011;6865;52.552;13.434;2023-07-20T02:10:48;7.97;;;5.30;;
13588;SDS011;6865;52.552;13.434;2023-07-20T02:13:15;6.80;;;5.38;;
13588;SDS011;6865;52.552;13.434;2023-07-20T02:15:42;6.75;;;4.57;;
13588;SDS011;6865;52.552;13.434;2023-07-20T02:18:09;7.18;;;5.63;;
13588;SDS011;6865;52.552;13.434;2023-07-20T02:20:36;6.07;;;5.45;;
13588;SDS011;6865;52.552;13.434;2023-07-20T02:23:02;5.68;;;5.18;;
13588;SDS011;6865;52.552;13.434;2023-07-20T02:25:29;7.78;;;5.93;;
13588;SDS011;6865;52.552;13.434;2023-07-20T02:27:56;6.47;;;5.70;;
13588;SDS011;6865;52.552;13.434;2023-07-20T02:30:22;6.15;;;5.53;;
13588;SDS011;6865;52.552;13.434;2023-07-20T02:32:49;6.68;;;5.90;;
13588;SDS011;6865;52.552;13.434;2023-07-20T02:35:16;7.43;;;6.07;;
13588;SDS011;6865;52.552;13.434;2023-07-20T02:37:43;6.90;;;6.15;;
13588;SDS011;6865;52.552;13.434;2023-07-20T02:40:10;7.88;;;7.07;;
13588;SDS011;6865;52.552;13.434;2023-07-20T02:42:37;8.68;;;7.47;;
13588;SDS011;6865;52.552;13.434;2023-07-20T02:45:04;8.23;;;7.28;;
13588;SDS011;6865;52.552;13.434;2023-07-20T02:47:31;10.05;;;8.10;;
13588;SDS011;6865;52.552;13.434;2023-07-20T02:49:59;9.95;;;8.25;;
13588;SDS011;6865;52.552;13.434;2023-07-20T02:52:26;10.20;;;8.38;;
13588;SDS011;6865;52.552;13.434;2023-07-20T02:54:52;9.48;;;8.57;;
13588;SDS011;6865;52.552;13.434;2023-07-20T02:57:19;9.38;;;8.00;;
13588;SDS011;6865;52.552;13.434;2023-07-20T02:59:46;10.43;;;8.82;;
13588;SDS011;6865;52.552;13.434;2023-07-20T03:02:13;9.80;;;8.60;;
13588;SDS011;6865;52.552;13.434;2023-07-20T03:04:39;11.25;;;9.38;;
13588;SDS011;6865;52.552;13.434;2023-07-20T03:07:06;9.85;;;8.90;;
13588;SDS011;6865;52.552;13.434;2023-07-20T03:09:33;10.32;;;8.93;;
13588;SDS011;6865;52.552;13.434;2023-07-20T03:12:00;12.73;;;9.65;;
13588;SDS011;6865;52.552;13.434;2023-07-20T03:14:27;11.23;;;10.02;;
13588;SDS011;6865;52.552;13.434;2023-07-20T03:16:54;13.30;;;11.15;;
13588;SDS011;6865;52.552;13.434;2023-07-20T03:19:21;12.68;;;10.90;;
13588;SDS011;6865;52.552;13.434;2023-07-20T03:21:47;12.68;;;10.95;;
13588;SDS011;6865;52.552;13.434;2023-07-20T03:24:14;14.93;;;10.65;;
13588;SDS011;6865;52.552;13.434;2023-07-20T03:26:42;11.82;;;10.10;;
13588;SDS011;6865;52.552;13.434;2023-07-20T03:29:09;13.15;;;10.32;;
13588;SDS011;6865;52.552;13.434;2023-07-20T03:31:35;11.50;;;10.30;;
13588;SDS011;6865;52.552;13.434;2023-07-20T03:34:02;11.55;;;10.35;;
13588;SDS011;6865;52.552;13.434;2023-07-20T03:36:29;12.82;;;10.68;;
13588;SDS011;6865;52.552;13.434;2023-07-20T03:38:55;13.70;;;10.18;;
13588;SDS011;6865;52.552;13.434;2023-07-20T03:41:22;12.85;;;10.55;;
13588;SDS011;6865;52.552;13.434;2023-07-20T03:43:49;15.05;;;11.07;;
13588;SDS011;6865;52.552;13.434;2023-07-20T03:46:16;16.27;;;12.00;;
13588;SDS011;6865;52.552;13.434;2023-07-20T03:48:43;15.73;;;12.00;;
13588;SDS011;6865;52.552;13.434;2023-07-20T03:51:09;14.68;;;11.05;;
13588;SDS011;6865;52.552;13.434;2023-07-20T03:53:36;12.65;;;11.35;;
13588;SDS011;6865;52.552;13.434;2023-07-20T03:56:03;11.47;;;10.37;;
13588;SDS011;6865;52.552;13.434;2023-07-20T03:58:30;12.48;;;11.13;;
13588;SDS011;6865;52.552;13.434;2023-07-20T04:00:57;15.23;;;12.00;;
13588;SDS011;6865;52.552;13.434;2023-07-20T04:03:24;11.93;;;10.73;;
13588;SDS011;6865;52.552;13.434;2023-07-20T04:05:53;13.57;;;10.80;;
13588;SDS011;6865;52.552;13.434;2023-07-20T04:08:22;12.57;;;11.27;;
13588;SDS011;6865;52.552;13.434;2023-07-20T04:10:50;13.63;;;11.37;;
13588;SDS011;6865;52.552;13.434;2023-07-20T04:13:17;13.73;;;11.30;;
13588;SDS011;6865;52.552;13.434;2023-07-20T04:15:44;15.93;;;11.30;;
13588;SDS011;6865;52.552;13.434;2023-07-20T04:18:11;14.05;;;10.95;;
13588;SDS011;6865;52.552;13.434;2023-07-20T04:20:38;12.68;;;11.10;;
13588;SDS011;6865;52.552;13.434;2023-07-20T04:23:05;12.95;;;11.18;;
13588;SDS011;6865;52.552;13.434;2023-07-20T04:25:31;14.73;;;11.43;;
13588;SDS011;6865;52.552;13.434;2023-07-20T04:28:06;14.43;;;11.02;;
13588;SDS011;6865;52.552;13.434;2023-07-20T04:30:37;13.82;;;11.70;;
13588;SDS011;6865;52.552;13.434;2023-07-20T04:33:05;15.57;;;12.02;;
13588;SDS011;6865;52.552;13.434;2023-07-20T04:35:49;13.32;;;11.85;;
13588;SDS011;6865;52.552;13.434;2023-07-20T04:38:20;17.15;;;11.23;;
13588;SDS011;6865;52.552;13.434;2023-07-20T04:40:48;12.93;;;10.80;;
13588;SDS011;6865;52.552;13.434;2023-07-20T04:43:16;13.13;;;10.80;;
13588;SDS011;6865;52.552;13.434;2023-07-20T04:45:43;12.50;;;10.02;;
13588;SDS011;6865;52.552;13.434;2023-07-20T04:48:11;10.75;;;9.65;;
13588;SDS011;6865;52.552;13.434;2023-07-20T04:50:40;11.32;;;9.27;;
13588;SDS011;6865;52.552;13.434;2023-07-20T04:53:10;11.38;;;9.32;;
13588;SDS011;6865;52.552;13.434;2023-07-20T04:55:38;11.02;;;9.90;;
13588;SDS011;6865;52.552;13.434;2023-07-20T04:58:05;11.82;;;9.48;;
13588;SDS011;6865;52.552;13.434;2023-07-20T05:00:33;12.27;;;10.23;;
13588;SDS011;6865;52.552;13.434;2023-07-20T05:03:00;9.98;;;8.95;;
13588;SDS011;6865;52.552;13.434;2023-07-20T05:05:28;10.10;;;9.10;;
13588;SDS011;6865;52.552;13.434;2023-07-20T05:07:54;9.18;;;8.27;;
13588;SDS011;6865;52.552;13.434;2023-07-20T05:10:21;8.98;;;7.85;;
13588;SDS011;6865;52.552;13.434;2023-07-20T05:12:48;9.15;;;7.57;;
13588;SDS011;6865;52.552;13.434;2023-07-20T05:15:14;7.65;;;6.85;;
13588;SDS011;6865;52.552;13.434;2023-07-20T05:17:41;9.15;;;7.15;;
13588;SDS011;6865;52.552;13.434;2023-07-20T05:20:08;7.95;;;6.78;;
13588;SDS011;6865;52.552;13.434;2023-07-20T05:22:36;7.50;;;6.55;;
13588;SDS011;6865;52.552;13.434;2023-07-20T05:25:06;7.30;;;6.55;;
13588;SDS011;6865;52.552;13.434;2023-07-20T05:27:37;9.20;;;6.60;;
13588;SDS011;6865;52.552;13.434;2023-07-20T05:30:05;7.00;;;6.30;;
13588;SDS011;6865;52.552;13.434;2023-07-20T05:32:33;7.35;;;6.43;;
13588;SDS011;6865;52.552;13.434;2023-07-20T05:35:00;10.85;;;7.57;;
13588;SDS011;6865;52.552;13.434;2023-07-20T05:37:28;11.00;;;7.60;;
13588;SDS011;6865;52.552;13.434;2023-07-20T05:39:54;8.45;;;7.65;;
13588;SDS011;6865;52.552;13.434;2023-07-20T05:42:21;9.10;;;7.90;;
13588;SDS011;6865;52.552;13.434;2023-07-20T05:44:48;9.98;;;7.80;;
13588;SDS011;6865;52.552;13.434;2023-07-20T05:47:16;10.48;;;7.93;;
13588;SDS011;6865;52.552;13.434;2023-07-20T05:49:42;8.27;;;7.38;;
13588;SDS011;6865;52.552;13.434;2023-07-20T05:52:09;9.23;;;6.68;;
13588;SDS011;6865;52.552;13.434;2023-07-20T05:54:36;9.75;;;7.65;;
13588;SDS011;6865;52.552;13.434;2023-07-20T05:57:02;8.52;;;7.72;;
13588;SDS011;6865;52.552;13.434;2023-07-20T05:59:29;8.95;;;7.03;;
13588;SDS011;6865;52.552;13.434;2023-07-20T06:01:56;6.55;;;5.80;;
13588;SDS011;6865;52.552;13.434;2023-07-20T06:04:23;9.15;;;6.25;;
13588;SDS011;6865;52.552;13.434;2023-07-20T06:06:49;8.63;;;6.18;;
13588;SDS011;6865;52.552;13.434;2023-07-20T06:09:16;7.60;;;6.38;;
13588;SDS011;6865;52.552;13.434;2023-07-20T06:11:43;6.85;;;6.15;;
13588;SDS011;6865;52.552;13.434;2023-07-20T06:14:09;6.07;;;5.28;;
13588;SDS011;6865;52.552;13.434;2023-07-20T06:16:36;11.77;;;6.47;;
13588;SDS011;6865;52.552;13.434;2023-07-20T06:19:03;6.68;;;5.45;;
13588;SDS011;6865;52.552;13.434;2023-07-20T06:21:30;8.73;;;5.18;;
13588;SDS011;6865;52.552;13.434;2023-07-20T06:23:57;5.00;;;4.47;;
13588;SDS011;6865;52.552;13.434;2023-07-20T06:26:24;5.20;;;4.43;;
13588;SDS011;6865;52.552;13.434;2023-07-20T06:28:51;5.80;;;4.38;;
13588;SDS011;6865;52.552;13.434;2023-07-20T06:31:18;5.65;;;4.65;;
13588;SDS011;6865;52.552;13.434;2023-07-20T06:33:45;6.47;;;4.82;;
13588;SDS011;6865;52.552;13.434;2023-07-20T06:36:11;5.15;;;4.68;;
13588;SDS011;6865;52.552;13.434;2023-07-20T06:38:38;7.13;;;4.25;;
13588;SDS011;6865;52.552;13.434;2023-07-20T06:41:05;4.78;;;4.20;;
13588;SDS011;6865;52.552;13.434;2023-07-20T06:43:34;6.15;;;3.58;;
13588;SDS011;6865;52.552;13.434;2023-07-20T06:46:04;4.30;;;3.30;;
13588;SDS011;6865;52.552;13.434;2023-07-20T06:48:31;5.30;;;3.38;;
13588;SDS011;6865;52.552;13.434;2023-07-20T06:50:58;5.43;;;3.45;;
13588;SDS011;6865;52.552;13.434;2023-07-20T06:53:24;5.63;;;3.40;;
13588;SDS011;6865;52.552;13.434;2023-07-20T06:55:51;5.55;;;3.05;;
13588;SDS011;6865;52.552;13.434;2023-07-20T06:58:18;3.30;;;3.00;;
13588;SDS011;6865;52.552;13.434;2023-07-20T07:00:45;6.18;;;2.60;;
13588;SDS011;6865;52.552;13.434;2023-07-20T07:03:12;5.28;;;2.92;;
13588;SDS011;6865;52.552;13.434;2023-07-20T07:05:38;2.67;;;2.47;;
13588;SDS011;6865;52.552;13.434;2023-07-20T07:08:05;3.33;;;2.20;;
13588;SDS011;6865;52.552;13.434;2023-07-20T07:10:34;6.78;;;2.60;;
13588;SDS011;6865;52.552;13.434;2023-07-20T07:13:02;4.13;;;2.35;;
13588;SDS011;6865;52.552;13.434;2023-07-20T07:15:31;3.28;;;2.72;;
13588;SDS011;6865;52.552;13.434;2023-07-20T07:17:58;6.30;;;2.83;;
13588;SDS011;6865;52.552;13.434;2023-07-20T07:20:26;3.72;;;2.47;;
13588;SDS011;6865;52.552;13.434;2023-07-20T07:22:54;4.45;;;2.08;;
13588;SDS011;6865;52.552;13.434;2023-07-20T07:25:22;6.50;;;2.67;;
13588;SDS011;6865;52.552;13.434;2023-07-20T07:27:49;3.22;;;2.30;;
13588;SDS011;6865;52.552;13.434;2023-07-20T07:30:17;2.55;;;1.90;;
13588;SDS011;6865;52.552;13.434;2023-07-20T07:32:44;2.85;;;1.90;;
13588;SDS011;6865;52.552;13.434;2023-07-20T07:35:11;3.38;;;1.88;;
13588;SDS011;6865;52.552;13.434;2023-07-20T07:37:38;2.92;;;1.70;;
13588;SDS011;6865;52.552;13.434;2023-07-20T07:40:24;3.97;;;2.63;;
13588;SDS011;6865;52.552;13.434;2023-07-20T07:42:51;3.22;;;2.47;;
13588;SDS011;6865;52.552;13.434;2023-07-20T07:45:18;5.15;;;1.98;;
13588;SDS011;6865;52.552;13.434;2023-07-20T07:47:44;2.63;;;1.60;;
13588;SDS011;6865;52.552;13.434;2023-07-20T07:50:11;3.22;;;2.90;;
13588;SDS011;6865;52.552;13.434;2023-07-20T07:52:38;1.55;;;1.45;;
13588;SDS011;6865;52.552;13.434;2023-07-20T07:55:05;4.35;;;1.60;;
13588;SDS011;6865;52.552;13.434;2023-07-20T07:57:32;1.83;;;1.35;;
13588;SDS011;6865;52.552;13.434;2023-07-20T07:59:59;1.65;;;1.48;;
13588;SDS011;6865;52.552;13.434;2023-07-20T08:02:25;3.47;;;1.42;;
13588;SDS011;6865;52.552;13.434;2023-07-20T08:04:52;2.28;;;1.42;;
13588;SDS011;6865;52.552;13.434;2023-07-20T08:07:19;1.45;;;1.30;;
13588;SDS011;6865;52.552;13.434;2023-07-20T08:09:46;3.53;;;1.30;;
13588;SDS011;6865;52.552;13.434;2023-07-20T08:12:12;2.63;;;1.48;;
13588;SDS011;6865;52.552;13.434;2023-07-20T08:14:39;8.30;;;1.58;;
13588;SDS011;6865;52.552;13.434;2023-07-20T08:17:06;1.55;;;1.40;;
13588;SDS011;6865;52.552;13.434;2023-07-20T08:19:33;4.65;;;1.63;;
13588;SDS011;6865;52.552;13.434;2023-07-20T08:22:01;2.15;;;1.30;;
13588;SDS011;6865;52.552;13.434;2023-07-20T08:24:28;1.50;;;1.40;;
13588;SDS011;6865;52.552;13.434;2023-07-20T08:26:55;1.60;;;1.30;;
13588;SDS011;6865;52.552;13.434;2023-07-20T08:29:23;3.72;;;1.20;;
13588;SDS011;6865;52.552;13.434;2023-07-20T08:31:50;1.70;;;1.38;;
13588;SDS011;6865;52.552;13.434;2023-07-20T08:34:17;4.20;;;2.00;;
13588;SDS011;6865;52.552;13.434;2023-07-20T08:36:57;4.15;;;1.30;;
13588;SDS011;6865;52.552;13.434;2023-07-20T08:39:24;2.47;;;1.23;;
13588;SDS011;6865;52.552;13.434;2023-07-20T08:41:51;1.63;;;1.40;;
13588;SDS011;6865;52.552;13.434;2023-07-20T08:44:18;2.40;;;1.10;;
13588;SDS011;6865;52.552;13.434;2023-07-20T08:46:45;1.98;;;1.00;;
13588;SDS011;6865;52.552;13.434;2023-07-20T08:49:15;1.40;;;1.00;;
13588;SDS011;6865;52.552;13.434;2023-07-20T08:51:43;2.10;;;0.95;;
13588;SDS011;6865;52.552;13.434;2023-07-20T08:54:11;0.80;;;0.80;;
13588;SDS011;6865;52.552;13.434;2023-07-20T08:56:39;2.00;;;1.30;;
13588;SDS011;6865;52.552;13.434;2023-07-20T08:59:10;2.00;;;1.00;;
13588;SDS011;6865;52.552;13.434;2023-07-20T09:01:40;1.50;;;1.10;;
13588;SDS011;6865;52.552;13.434;2023-07-20T09:04:07;1.00;;;0.90;;
13588;SDS011;6865;52.552;13.434;2023-07-20T09:06:34;1.10;;;0.82;;
13588;SDS011;6865;52.552;13.434;2023-07-20T09:09:01;2.88;;;1.10;;
13588;SDS011;6865;52.552;13.434;2023-07-20T09:11:29;2.35;;;1.00;;
13588;SDS011;6865;52.552;13.434;2023-07-20T09:14:02;1.15;;;0.80;;
13588;SDS011;6865;52.552;13.434;2023-07-20T09:16:38;2.60;;;1.00;;
13588;SDS011;6865;52.552;13.434;2023-07-20T09:19:17;1.20;;;1.00;;
13588;SDS011;6865;52.552;13.434;2023-07-20T09:21:44;2.20;;;1.10;;
13588;SDS011;6865;52.552;13.434;2023-07-20T09:24:13;2.60;;;0.90;;
13588;SDS011;6865;52.552;13.434;2023-07-20T09:26:42;4.72;;;4.10;;
13588;SDS011;6865;52.552;13.434;2023-07-20T09:29:10;1.20;;;1.05;;
13588;SDS011;6865;52.552;13.434;2023-07-20T09:31:37;1.15;;;0.93;;
13588;SDS011;6865;52.552;13.434;2023-07-20T09:34:07;1.60;;;1.00;;
13588;SDS011;6865;52.552;13.434;2023-07-20T09:36:35;0.95;;;0.80;;
13588;SDS011;6865;52.552;13.434;2023-07-20T09:39:05;1.40;;;1.17;;
13588;SDS011;6865;52.552;13.434;2023-07-20T09:41:41;1.15;;;0.90;;
13588;SDS011;6865;52.552;13.434;2023-07-20T09:44:15;1.52;;;1.10;;
13588;SDS011;6865;52.552;13.434;2023-07-20T09:46:45;1.85;;;1.10;;
13588;SDS011;6865;52.552;13.434;2023-07-20T09:49:19;1.15;;;1.05;;
13588;SDS011;6865;52.552;13.434;2023-07-20T09:51:49;1.00;;;0.90;;
13588;SDS011;6865;52.552;13.434;2023-07-20T09:54:16;1.65;;;1.10;;
13588;SDS011;6865;52.552;13.434;2023-07-20T09:56:44;1.80;;;1.20;;
13588;SDS011;6865;52.552;13.434;2023-07-20T09:59:13;2.20;;;1.10;;
13588;SDS011;6865;52.552;13.434;2023-07-20T10:01:41;4.65;;;1.23;;
13588;SDS011;6865;52.552;13.434;2023-07-20T10:04:09;2.80;;;2.17;;
13588;SDS011;6865;52.552;13.434;2023-07-20T10:06:39;1.75;;;1.55;;
13588;SDS011;6865;52.552;13.434;2023-07-20T10:09:10;1.88;;;1.27;;
13588;SDS011;6865;52.552;13.434;2023-07-20T10:11:38;2.75;;;1.45;;
13588;SDS011;6865;52.552;13.434;2023-07-20T10:14:31;2.22;;;1.30;;
13588;SDS011;6865;52.552;13.434;2023-07-20T10:17:02;5.05;;;1.17;;
13588;SDS011;6865;52.552;13.434;2023-07-20T10:19:39;1.95;;;1.48;;
13588;SDS011;6865;52.552;13.434;2023-07-20T10:22:19;2.70;;;1.27;;
13588;SDS011;6865;52.552;13.434;2023-07-20T10:24:50;1.20;;;1.00;;
13588;SDS011;6865;52.552;13.434;2023-07-20T10:27:20;4.03;;;1.30;;
13588;SDS011;6865;52.552;13.434;2023-07-20T10:29:47;1.73;;;1.02;;
13588;SDS011;6865;52.552;13.434;2023-07-20T10:32:14;3.05;;;1.20;;
13588;SDS011;6865;52.552;13.434;2023-07-20T10:34:41;1.52;;;1.27;;
13588;SDS011;6865;52.552;13.434;2023-07-20T10:37:08;1.55;;;1.00;;
13588;SDS011;6865;52.552;13.434;2023-07-20T10:39:34;0.70;;;0.70;;
13588;SDS011;6865;52.552;13.434;2023-07-20T10:42:07;2.17;;;1.20;;
13588;SDS011;6865;52.552;13.434;2023-07-20T10:44:36;1.80;;;1.10;;
13588;SDS011;6865;52.552;13.434;2023-07-20T10:47:11;1.23;;;1.05;;
13588;SDS011;6865;52.552;13.434;2023-07-20T10:49:57;1.30;;;1.10;;
13588;SDS011;6865;52.552;13.434;2023-07-20T10:52:35;2.28;;;1.00;;
13588;SDS011;6865;52.552;13.434;2023-07-20T10:55:16;1.73;;;1.17;;
13588;SDS011;6865;52.552;13.434;2023-07-20T10:57:43;1.42;;;1.10;;
13588;SDS011;6865;52.552;13.434;2023-07-20T11:00:30;1.83;;;1.10;;
13588;SDS011;6865;52.552;13.434;2023-07-20T11:03:02;3.85;;;1.00;;
13588;SDS011;6865;52.552;13.434;2023-07-20T11:05:39;1.80;;;1.30;;
13588;SDS011;6865;52.552;13.434;2023-07-20T11:08:10;2.53;;;1.05;;
13588;SDS011;6865;52.552;13.434;2023-07-20T11:10:38;3.78;;;1.27;;
13588;SDS011;6865;52.552;13.434;2023-07-20T11:13:18;1.45;;;1.20;;
13588;SDS011;6865;52.552;13.434;2023-07-20T11:18:25;1.55;;;1.00;;
13588;SDS011;6865;52.552;13.434;2023-07-20T11:20:53;2.10;;;1.15;;
13588;SDS011;6865;52.552;13.434;2023-07-20T11:23:20;2.75;;;1.15;;
13588;SDS011;6865;52.552;13.434;2023-07-20T11:25:46;1.63;;;1.20;;
13588;SDS011;6865;52.552;13.434;2023-07-20T11:28:13;3.88;;;1.73;;
13588;SDS011;6865;52.552;13.434;2023-07-20T11:30:40;3.40;;;1.13;;
13588;SDS011;6865;52.552;13.434;2023-07-20T11:33:10;3.83;;;1.00;;
13588;SDS011;6865;52.552;13.434;2023-07-20T11:35:44;0.90;;;0.80;;
13588;SDS011;6865;52.552;13.434;2023-07-20T11:38:12;1.88;;;0.90;;
13588;SDS011;6865;52.552;13.434;2023-07-20T11:40:43;0.95;;;0.80;;
13588;SDS011;6865;52.552;13.434;2023-07-20T11:43:11;2.85;;;1.20;;
13588;SDS011;6865;52.552;13.434;2023-07-20T11:45:42;1.45;;;1.15;;
13588;SDS011;6865;52.552;13.434;2023-07-20T11:48:14;1.70;;;0.90;;
13588;SDS011;6865;52.552;13.434;2023-07-20T11:50:41;2.83;;;1.25;;
13588;SDS011;6865;52.552;13.434;2023-07-20T11:53:08;2.53;;;1.52;;
13588;SDS011;6865;52.552;13.434;2023-07-20T11:55:35;1.55;;;0.93;;
13588;SDS011;6865;52.552;13.434;2023-07-20T12:00:30;1.00;;;0.82;;
13588;SDS011;6865;52.552;13.434;2023-07-20T12:02:57;0.98;;;0.80;;
13588;SDS011;6865;52.552;13.434;2023-07-20T12:05:24;5.60;;;1.13;;
13588;SDS011;6865;52.552;13.434;2023-07-20T12:07:52;4.57;;;1.10;;
13588;SDS011;6865;52.552;13.434;2023-07-20T12:10:27;2.55;;;1.10;;
13588;SDS011;6865;52.552;13.434;2023-07-20T12:12:54;3.85;;;0.98;;
13588;SDS011;6865;52.552;13.434;2023-07-20T12:15:27;3.20;;;1.02;;
13588;SDS011;6865;52.552;13.434;2023-07-20T12:17:56;1.48;;;1.00;;
13588;SDS011;6865;52.552;13.434;2023-07-20T12:20:25;1.17;;;0.93;;
13588;SDS011;6865;52.552;13.434;2023-07-20T12:23:01;1.33;;;0.90;;
13588;SDS011;6865;52.552;13.434;2023-07-20T12:28:04;12.00;;;1.38;;
13588;SDS011;6865;52.552;13.434;2023-07-20T12:30:34;3.00;;;1.00;;
13588;SDS011;6865;52.552;13.434;2023-07-20T12:33:02;1.40;;;1.17;;
13588;SDS011;6865;52.552;13.434;2023-07-20T12:35:29;2.60;;;1.20;;
13588;SDS011;6865;52.552;13.434;2023-07-20T12:37:57;1.30;;;1.10;;
13588;SDS011;6865;52.552;13.434;2023-07-20T12:40:24;1.65;;;0.95;;
13588;SDS011;6865;52.552;13.434;2023-07-20T12:42:51;1.02;;;0.80;;
13588;SDS011;6865;52.552;13.434;2023-07-20T12:45:18;1.48;;;1.00;;
13588;SDS011;6865;52.552;13.434;2023-07-20T12:47:45;1.52;;;0.93;;
13588;SDS011;6865;52.552;13.434;2023-07-20T12:50:12;1.25;;;1.08;;
13588;SDS011;6865;52.552;13.434;2023-07-20T12:52:39;1.58;;;0.98;;
13588;SDS011;6865;52.552;13.434;2023-07-20T12:55:06;1.00;;;0.90;;
13588;SDS011;6865;52.552;13.434;2023-07-20T12:57:34;1.38;;;0.90;;
13588;SDS011;6865;52.552;13.434;2023-07-20T13:00:05;0.90;;;0.77;;
13588;SDS011;6865;52.552;13.434;2023-07-20T13:02:36;1.60;;;1.33;;
13588;SDS011;6865;52.552;13.434;2023-07-20T13:05:03;1.98;;;1.10;;
13588;SDS011;6865;52.552;13.434;2023-07-20T13:07:31;0.98;;;0.88;;
13588;SDS011;6865;52.552;13.434;2023-07-20T13:10:02;0.88;;;0.80;;
13588;SDS011;6865;52.552;13.434;2023-07-20T13:12:31;5.30;;;1.30;;
13588;SDS011;6865;52.552;13.434;2023-07-20T13:14:59;2.25;;;0.98;;
13588;SDS011;6865;52.552;13.434;2023-07-20T13:17:27;2.13;;;0.90;;
13588;SDS011;6865;52.552;13.434;2023-07-20T13:19:54;3.20;;;1.20;;
13588;SDS011;6865;52.552;13.434;2023-07-20T13:22:21;4.68;;;1.13;;
13588;SDS011;6865;52.552;13.434;2023-07-20T13:24:49;2.47;;;0.88;;
13588;SDS011;6865;52.552;13.434;2023-07-20T13:27:17;1.10;;;1.00;;
13588;SDS011;6865;52.552;13.434;2023-07-20T13:29:45;0.93;;;0.80;;
13588;SDS011;6865;52.552;13.434;2023-07-20T13:32:14;2.22;;;1.08;;
13588;SDS011;6865;52.552;13.434;2023-07-20T13:34:42;1.38;;;1.00;;
13588;SDS011;6865;52.552;13.434;2023-07-20T13:37:10;1.30;;;1.00;;
13588;SDS011;6865;52.552;13.434;2023-07-20T13:39:38;1.35;;;0.90;;
13588;SDS011;6865;52.552;13.434;2023-07-20T13:42:06;1.88;;;0.85;;
13588;SDS011;6865;52.552;13.434;2023-07-20T13:44:33;1.00;;;0.80;;
13588;SDS011;6865;52.552;13.434;2023-07-20T13:47:00;1.70;;;0.70;;
13588;SDS011;6865;52.552;13.434;2023-07-20T13:49:31;1.30;;;0.80;;
13588;SDS011;6865;52.552;13.434;2023-07-20T13:52:11;1.17;;;0.98;;
13588;SDS011;6865;52.552;13.434;2023-07-20T13:54:41;1.13;;;0.80;;
13588;SDS011;6865;52.552;13.434;2023-07-20T13:57:14;1.70;;;1.25;;
13588;SDS011;6865;52.552;13.434;2023-07-20T13:59:42;3.03;;;1.17;;
13588;SDS011;6865;52.552;13.434;2023-07-20T14:02:11;2.17;;;1.08;;
13588;SDS011;6865;52.552;13.434;2023-07-20T14:04:43;2.28;;;1.30;;
13588;SDS011;6865;52.552;13.434;2023-07-20T14:07:10;2.00;;;0.90;;
13588;SDS011;6865;52.552;13.434;2023-07-20T14:09:37;4.32;;;0.80;;
13588;SDS011;6865;52.552;13.434;2023-07-20T14:12:24;2.63;;;1.00;;
13588;SDS011;6865;52.552;13.434;2023-07-20T14:14:50;1.08;;;0.90;;
13588;SDS011;6865;52.552;13.434;2023-07-20T14:17:17;1.83;;;1.00;;
13588;SDS011;6865;52.552;13.434;2023-07-20T14:19:44;2.83;;;0.90;;
13588;SDS011;6865;52.552;13.434;2023-07-20T14:22:10;0.80;;;0.80;;
13588;SDS011;6865;52.552;13.434;2023-07-20T14:24:37;1.40;;;1.00;;
13588;SDS011;6865;52.552;13.434;2023-07-20T14:27:04;2.28;;;0.93;;
13588;SDS011;6865;52.552;13.434;2023-07-20T14:29:31;3.30;;;0.90;;
13588;SDS011;6865;52.552;13.434;2023-07-20T14:31:59;2.33;;;1.00;;
13588;SDS011;6865;52.552;13.434;2023-07-20T14:34:26;1.92;;;1.00;;
13588;SDS011;6865;52.552;13.434;2023-07-20T14:36:53;1.15;;;1.05;;
13588;SDS011;6865;52.552;13.434;2023-07-20T14:39:20;1.23;;;1.02;;
13588;SDS011;6865;52.552;13.434;2023-07-20T14:41:46;2.03;;;1.20;;
13588;SDS011;6865;52.552;13.434;2023-07-20T14:44:13;2.92;;;0.90;;
13588;SDS011;6865;52.552;13.434;2023-07-20T14:46:40;1.75;;;0.98;;
13588;SDS011;6865;52.552;13.434;2023-07-20T14:49:07;2.67;;;1.58;;
13588;SDS011;6865;52.552;13.434;2023-07-20T14:51:33;1.30;;;1.10;;
13588;SDS011;6865;52.552;13.434;2023-07-20T14:54:03;1.40;;;1.25;;
13588;SDS011;6865;52.552;13.434;2023-07-20T14:56:30;1.42;;;1.30;;
13588;SDS011;6865;52.552;13.434;2023-07-20T14:58:56;2.00;;;1.33;;
13588;SDS011;6865;52.552;13.434;2023-07-20T15:01:24;1.35;;;1.10;;